sensor_id;sensor_type;location;lat;lon;timestamp;pressure;altitude;pressure_sealevel;temperature;humidity
16525;BME280;8375;33.594;-117.718;2023-04-09T00:02:29;100421.66;;;21.33;47.46
16525;BME280;8375;33.594;-117.718;2023-04-09T00:05:00;100415.53;;;21.17;47.85
16525;BME280;8375;33.594;-117.718;2023-04-09T00:07:29;100411.06;;;21.03;48.31
16525;BME280;8375;33.594;-117.718;2023-04-09T00:09:58;100415.78;;;20.92;48.76
16525;BME280;8375;33.594;-117.718;2023-04-09T00:12:26;100411.50;;;20.91;49.03
16525;BME280;8375;33.594;-117.718;2023-04-09T00:14:56;100404.44;;;20.92;49.46
16525;BME280;8375;33.594;-117.718;2023-04-09T00:17:24;100414.34;;;20.90;49.84
16525;BME280;8375;33.594;-117.718;2023-04-09T00:19:55;100413.97;;;20.78;50.04
16525;BME280;8375;33.594;-117.718;2023-04-09T00:22:23;100408.25;;;20.89;50.32
16525;BME280;8375;33.594;-117.718;2023-04-09T00:24:52;100415.13;;;20.75;50.89
16525;BME280;8375;33.594;-117.718;2023-04-09T00:27:21;100412.78;;;20.80;51.37
16525;BME280;8375;33.594;-117.718;2023-04-09T00:29:49;100410.00;;;20.74;51.95
16525;BME280;8375;33.594;-117.718;2023-04-09T00:32:20;100417.00;;;20.66;52.10
16525;BME280;8375;33.594;-117.718;2023-04-09T00:34:49;100415.72;;;20.62;52.73
16525;BME280;8375;33.594;-117.718;2023-04-09T00:37:19;100414.72;;;20.48;52.91
16525;BME280;8375;33.594;-117.718;2023-04-09T00:39:48;100412.94;;;20.41;53.30
16525;BME280;8375;33.594;-117.718;2023-04-09T00:42:16;100418.72;;;19.98;54.34
16525;BME280;8375;33.594;-117.718;2023-04-09T00:44:45;100420.41;;;19.90;55.01
16525;BME280;8375;33.594;-117.718;2023-04-09T00:47:14;100417.44;;;19.85;55.45
16525;BME280;8375;33.594;-117.718;2023-04-09T00:49:43;100423.56;;;19.77;55.82
16525;BME280;8375;33.594;-117.718;2023-04-09T00:52:11;100429.88;;;19.68;56.20
16525;BME280;8375;33.594;-117.718;2023-04-09T00:54:42;100426.81;;;19.56;56.51
16525;BME280;8375;33.594;-117.718;2023-04-09T00:57:11;100428.31;;;19.50;57.01
16525;BME280;8375;33.594;-117.718;2023-04-09T00:59:39;100429.16;;;19.43;57.15
16525;BME280;8375;33.594;-117.718;2023-04-09T01:02:08;100426.72;;;19.33;57.54
16525;BME280;8375;33.594;-117.718;2023-04-09T01:04:37;100433.53;;;19.19;58.24
16525;BME280;8375;33.594;-117.718;2023-04-09T01:07:12;100427.31;;;19.03;58.66
16525;BME280;8375;33.594;-117.718;2023-04-09T01:09:49;100422.41;;;19.00;58.61
16525;BME280;8375;33.594;-117.718;2023-04-09T01:12:28;100424.19;;;18.91;59.41
16525;BME280;8375;33.594;-117.718;2023-04-09T01:15:04;100425.84;;;18.68;58.43
16525;BME280;8375;33.594;-117.718;2023-04-09T01:17:37;100428.16;;;18.62;57.88
16525;BME280;8375;33.594;-117.718;2023-04-09T01:20:11;100420.28;;;18.62;57.56
16525;BME280;8375;33.594;-117.718;2023-04-09T01:22:56;100427.50;;;18.44;58.33
16525;BME280;8375;33.594;-117.718;2023-04-09T01:25:42;100422.59;;;18.49;58.47
16525;BME280;8375;33.594;-117.718;2023-04-09T01:28:24;100432.75;;;18.44;58.64
16525;BME280;8375;33.594;-117.718;2023-04-09T01:30:58;100424.22;;;18.33;58.65
16525;BME280;8375;33.594;-117.718;2023-04-09T01:33:28;100422.91;;;18.21;59.43
16525;BME280;8375;33.594;-117.718;2023-04-09T01:35:58;100421.97;;;17.87;60.00
16525;BME280;8375;33.594;-117.718;2023-04-09T01:38:27;100426.59;;;17.94;60.71
16525;BME280;8375;33.594;-117.718;2023-04-09T01:40:57;100426.94;;;17.99;61.03
16525;BME280;8375;33.594;-117.718;2023-04-09T01:43:30;100434.75;;;17.82;60.92
16525;BME280;8375;33.594;-117.718;2023-04-09T01:45:59;100429.31;;;17.67;61.22
16525;BME280;8375;33.594;-117.718;2023-04-09T01:48:29;100435.69;;;17.65;61.94
16525;BME280;8375;33.594;-117.718;2023-04-09T01:50:58;100435.88;;;17.63;61.50
16525;BME280;8375;33.594;-117.718;2023-04-09T01:53:27;100429.22;;;17.42;62.92
16525;BME280;8375;33.594;-117.718;2023-04-09T01:55:58;100431.63;;;17.36;63.58
16525;BME280;8375;33.594;-117.718;2023-04-09T01:58:29;100425.66;;;17.17;64.30
16525;BME280;8375;33.594;-117.718;2023-04-09T02:01:05;100429.25;;;16.90;65.29
16525;BME280;8375;33.594;-117.718;2023-04-09T02:03:38;100431.38;;;16.68;66.54
16525;BME280;8375;33.594;-117.718;2023-04-09T02:06:12;100430.94;;;16.54;67.66
16525;BME280;8375;33.594;-117.718;2023-04-09T02:08:43;100424.00;;;16.45;68.33
16525;BME280;8375;33.594;-117.718;2023-04-09T02:11:14;100424.38;;;16.50;68.75
16525;BME280;8375;33.594;-117.718;2023-04-09T02:13:45;100421.28;;;16.55;68.32
16525;BME280;8375;33.594;-117.718;2023-04-09T02:16:16;100423.75;;;16.56;67.90
16525;BME280;8375;33.594;-117.718;2023-04-09T02:18:45;100429.41;;;16.25;69.28
16525;BME280;8375;33.594;-117.718;2023-04-09T02:21:14;100431.34;;;16.23;69.69
16525;BME280;8375;33.594;-117.718;2023-04-09T02:23:44;100437.59;;;16.12;70.53
16525;BME280;8375;33.594;-117.718;2023-04-09T02:26:12;100445.44;;;15.94;71.36
16525;BME280;8375;33.594;-117.718;2023-04-09T02:28:41;100437.13;;;15.99;72.03
16525;BME280;8375;33.594;-117.718;2023-04-09T02:31:11;100444.31;;;15.69;72.48
16525;BME280;8375;33.594;-117.718;2023-04-09T02:33:40;100441.97;;;15.66;72.93
16525;BME280;8375;33.594;-117.718;2023-04-09T02:36:11;100446.81;;;15.61;73.84
16525;BME280;8375;33.594;-117.718;2023-04-09T02:38:40;100445.31;;;15.58;74.28
16525;BME280;8375;33.594;-117.718;2023-04-09T02:41:09;100448.75;;;15.59;74.47
16525;BME280;8375;33.594;-117.718;2023-04-09T02:43:37;100447.34;;;15.64;74.10
16525;BME280;8375;33.594;-117.718;2023-04-09T02:46:06;100445.56;;;15.65;74.62
16525;BME280;8375;33.594;-117.718;2023-04-09T02:48:37;100453.94;;;15.68;74.40
16525;BME280;8375;33.594;-117.718;2023-04-09T02:51:05;100456.91;;;15.55;74.34
16525;BME280;8375;33.594;-117.718;2023-04-09T02:53:34;100454.41;;;15.54;74.25
16525;BME280;8375;33.594;-117.718;2023-04-09T02:56:06;100458.72;;;15.45;75.24
16525;BME280;8375;33.594;-117.718;2023-04-09T02:58:34;100453.41;;;15.37;75.91
16525;BME280;8375;33.594;-117.718;2023-04-09T03:01:04;100455.47;;;15.33;76.24
16525;BME280;8375;33.594;-117.718;2023-04-09T03:03:33;100459.03;;;15.32;76.08
16525;BME280;8375;33.594;-117.718;2023-04-09T03:06:04;100462.88;;;15.38;76.52
16525;BME280;8375;33.594;-117.718;2023-04-09T03:08:33;100458.75;;;15.35;76.30
16525;BME280;8375;33.594;-117.718;2023-04-09T03:11:02;100466.75;;;15.34;76.32
16525;BME280;8375;33.594;-117.718;2023-04-09T03:13:30;100469.91;;;15.37;76.82
16525;BME280;8375;33.594;-117.718;2023-04-09T03:15:59;100470.19;;;15.34;76.95
16525;BME280;8375;33.594;-117.718;2023-04-09T03:18:28;100470.75;;;15.28;77.20
16525;BME280;8375;33.594;-117.718;2023-04-09T03:20:56;100473.94;;;15.22;77.84
16525;BME280;8375;33.594;-117.718;2023-04-09T03:23:27;100479.31;;;15.20;77.46
16525;BME280;8375;33.594;-117.718;2023-04-09T03:26:01;100481.78;;;15.22;77.66
16525;BME280;8375;33.594;-117.718;2023-04-09T03:28:30;100487.56;;;15.16;77.88
16525;BME280;8375;33.594;-117.718;2023-04-09T03:30:59;100487.59;;;14.96;78.24
16525;BME280;8375;33.594;-117.718;2023-04-09T03:33:27;100495.88;;;14.81;78.83
16525;BME280;8375;33.594;-117.718;2023-04-09T03:35:56;100493.53;;;14.78;79.27
16525;BME280;8375;33.594;-117.718;2023-04-09T03:38:26;100507.53;;;14.58;80.41
16525;BME280;8375;33.594;-117.718;2023-04-09T03:40:55;100501.09;;;14.52;80.63
16525;BME280;8375;33.594;-117.718;2023-04-09T03:43:24;100512.34;;;14.52;80.80
16525;BME280;8375;33.594;-117.718;2023-04-09T03:45:53;100510.84;;;14.50;80.96
16525;BME280;8375;33.594;-117.718;2023-04-09T03:48:21;100511.94;;;14.37;81.49
16525;BME280;8375;33.594;-117.718;2023-04-09T03:50:50;100526.75;;;14.27;82.43
16525;BME280;8375;33.594;-117.718;2023-04-09T03:53:19;100519.56;;;14.19;82.64
16525;BME280;8375;33.594;-117.718;2023-04-09T03:55:49;100522.88;;;14.21;82.80
16525;BME280;8375;33.594;-117.718;2023-04-09T03:58:18;100520.00;;;14.25;82.93
16525;BME280;8375;33.594;-117.718;2023-04-09T04:00:46;100528.38;;;14.18;82.95
16525;BME280;8375;33.594;-117.718;2023-04-09T04:03:15;100529.31;;;14.17;83.22
16525;BME280;8375;33.594;-117.718;2023-04-09T04:05:44;100529.16;;;14.09;83.56
16525;BME280;8375;33.594;-117.718;2023-04-09T04:08:13;100533.25;;;14.02;83.82
16525;BME280;8375;33.594;-117.718;2023-04-09T04:10:41;100540.81;;;14.05;84.10
16525;BME280;8375;33.594;-117.718;2023-04-09T04:13:12;100539.88;;;14.06;83.90
16525;BME280;8375;33.594;-117.718;2023-04-09T04:15:41;100550.72;;;14.01;83.86
16525;BME280;8375;33.594;-117.718;2023-04-09T04:18:10;100554.28;;;14.00;84.15
16525;BME280;8375;33.594;-117.718;2023-04-09T04:20:38;100556.75;;;14.02;83.87
16525;BME280;8375;33.594;-117.718;2023-04-09T04:23:07;100560.31;;;14.01;84.19
16525;BME280;8375;33.594;-117.718;2023-04-09T04:25:36;100562.66;;;13.94;84.30
16525;BME280;8375;33.594;-117.718;2023-04-09T04:28:07;100570.16;;;13.87;84.94
16525;BME280;8375;33.594;-117.718;2023-04-09T04:30:40;100577.03;;;13.88;84.63
16525;BME280;8375;33.594;-117.718;2023-04-09T04:33:09;100574.56;;;13.87;84.85
16525;BME280;8375;33.594;-117.718;2023-04-09T04:35:38;100580.47;;;13.89;85.08
16525;BME280;8375;33.594;-117.718;2023-04-09T04:38:07;100587.72;;;13.85;84.68
16525;BME280;8375;33.594;-117.718;2023-04-09T04:40:35;100590.41;;;13.74;85.34
16525;BME280;8375;33.594;-117.718;2023-04-09T04:43:04;100593.69;;;13.66;85.86
16525;BME280;8375;33.594;-117.718;2023-04-09T04:45:32;100594.06;;;13.61;86.03
16525;BME280;8375;33.594;-117.718;2023-04-09T04:48:03;100598.56;;;13.59;86.26
16525;BME280;8375;33.594;-117.718;2023-04-09T04:50:32;100600.38;;;13.59;86.21
16525;BME280;8375;33.594;-117.718;2023-04-09T04:53:00;100601.44;;;13.56;86.63
16525;BME280;8375;33.594;-117.718;2023-04-09T04:55:29;100609.69;;;13.40;87.57
16525;BME280;8375;33.594;-117.718;2023-04-09T04:57:58;100608.50;;;13.44;87.57
16525;BME280;8375;33.594;-117.718;2023-04-09T05:00:26;100611.69;;;13.37;87.89
16525;BME280;8375;33.594;-117.718;2023-04-09T05:02:55;100613.03;;;13.31;88.06
16525;BME280;8375;33.594;-117.718;2023-04-09T05:05:25;100614.13;;;13.28;88.59
16525;BME280;8375;33.594;-117.718;2023-04-09T05:07:54;100618.38;;;13.29;88.64
16525;BME280;8375;33.594;-117.718;2023-04-09T05:10:22;100610.59;;;13.18;89.32
16525;BME280;8375;33.594;-117.718;2023-04-09T05:12:51;100616.50;;;13.20;89.53
16525;BME280;8375;33.594;-117.718;2023-04-09T05:15:20;100620.88;;;13.19;89.53
16525;BME280;8375;33.594;-117.718;2023-04-09T05:17:49;100623.50;;;13.19;89.55
16525;BME280;8375;33.594;-117.718;2023-04-09T05:20:17;100622.69;;;13.19;89.66
16525;BME280;8375;33.594;-117.718;2023-04-09T05:22:48;100626.94;;;13.20;89.70
16525;BME280;8375;33.594;-117.718;2023-04-09T05:25:16;100627.19;;;13.17;89.59
16525;BME280;8375;33.594;-117.718;2023-04-09T05:27:45;100631.81;;;13.13;89.52
16525;BME280;8375;33.594;-117.718;2023-04-09T05:30:14;100634.09;;;13.06;89.88
16525;BME280;8375;33.594;-117.718;2023-04-09T05:32:42;100635.75;;;13.08;89.88
16525;BME280;8375;33.594;-117.718;2023-04-09T05:35:11;100626.28;;;13.06;90.11
16525;BME280;8375;33.594;-117.718;2023-04-09T05:37:40;100631.34;;;13.08;90.09
16525;BME280;8375;33.594;-117.718;2023-04-09T05:40:11;100634.09;;;13.06;90.11
16525;BME280;8375;33.594;-117.718;2023-04-09T05:42:40;100622.03;;;13.05;89.70
16525;BME280;8375;33.594;-117.718;2023-04-09T05:45:10;100622.63;;;12.98;89.47
16525;BME280;8375;33.594;-117.718;2023-04-09T05:47:39;100626.88;;;12.99;89.17
16525;BME280;8375;33.594;-117.718;2023-04-09T05:50:08;100625.22;;;12.98;89.68
16525;BME280;8375;33.594;-117.718;2023-04-09T05:52:37;100620.97;;;12.97;90.36
16525;BME280;8375;33.594;-117.718;2023-04-09T05:55:06;100624.16;;;13.00;90.98
16525;BME280;8375;33.594;-117.718;2023-04-09T05:57:37;100615.91;;;12.95;90.42
16525;BME280;8375;33.594;-117.718;2023-04-09T06:00:06;100624.78;;;12.93;90.33
16525;BME280;8375;33.594;-117.718;2023-04-09T06:02:35;100617.09;;;12.91;90.74
16525;BME280;8375;33.594;-117.718;2023-04-09T06:05:05;100621.47;;;12.90;90.36
16525;BME280;8375;33.594;-117.718;2023-04-09T06:07:33;100623.28;;;12.79;91.91
16525;BME280;8375;33.594;-117.718;2023-04-09T06:10:02;100615.31;;;12.80;91.72
16525;BME280;8375;33.594;-117.718;2023-04-09T06:12:33;100620.06;;;12.75;92.26
16525;BME280;8375;33.594;-117.718;2023-04-09T06:15:05;100619.63;;;12.70;92.17
16525;BME280;8375;33.594;-117.718;2023-04-09T06:17:33;100620.69;;;12.67;92.50
16525;BME280;8375;33.594;-117.718;2023-04-09T06:20:03;100621.91;;;12.63;91.87
16525;BME280;8375;33.594;-117.718;2023-04-09T06:22:31;100624.84;;;12.58;91.63
16525;BME280;8375;33.594;-117.718;2023-04-09T06:25:00;100621.53;;;12.56;91.79
16525;BME280;8375;33.594;-117.718;2023-04-09T06:27:29;100621.53;;;12.56;92.31
16525;BME280;8375;33.594;-117.718;2023-04-09T06:29:58;100615.03;;;12.51;92.30
16525;BME280;8375;33.594;-117.718;2023-04-09T06:32:29;100622.16;;;12.49;92.73
16525;BME280;8375;33.594;-117.718;2023-04-09T06:34:58;100615.75;;;12.64;94.04
16525;BME280;8375;33.594;-117.718;2023-04-09T06:37:27;100617.63;;;12.62;93.43
16525;BME280;8375;33.594;-117.718;2023-04-09T06:39:56;100621.66;;;12.55;93.24
16525;BME280;8375;33.594;-117.718;2023-04-09T06:42:25;100617.28;;;12.44;92.66
16525;BME280;8375;33.594;-117.718;2023-04-09T06:44:54;100621.31;;;12.37;92.62
16525;BME280;8375;33.594;-117.718;2023-04-09T06:47:23;100617.44;;;12.31;92.56
16525;BME280;8375;33.594;-117.718;2023-04-09T06:49:53;100609.63;;;12.31;93.67
16525;BME280;8375;33.594;-117.718;2023-04-09T06:52:22;100618.63;;;12.27;94.19
16525;BME280;8375;33.594;-117.718;2023-04-09T06:54:51;100613.03;;;12.20;94.44
16525;BME280;8375;33.594;-117.718;2023-04-09T06:57:20;100619.19;;;12.19;94.52
16525;BME280;8375;33.594;-117.718;2023-04-09T06:59:48;100616.13;;;12.14;94.27
16525;BME280;8375;33.594;-117.718;2023-04-09T07:02:17;100616.59;;;12.08;94.95
16525;BME280;8375;33.594;-117.718;2023-04-09T07:04:46;100614.59;;;12.11;95.73
16525;BME280;8375;33.594;-117.718;2023-04-09T07:07:16;100609.50;;;12.10;95.30
16525;BME280;8375;33.594;-117.718;2023-04-09T07:09:46;100614.22;;;12.05;95.35
16525;BME280;8375;33.594;-117.718;2023-04-09T07:12:21;100608.63;;;11.98;95.06
16525;BME280;8375;33.594;-117.718;2023-04-09T07:14:56;100614.41;;;11.90;95.12
16525;BME280;8375;33.594;-117.718;2023-04-09T07:17:25;100608.88;;;11.83;95.43
16525;BME280;8375;33.594;-117.718;2023-04-09T07:19:53;100613.34;;;11.81;95.42
16525;BME280;8375;33.594;-117.718;2023-04-09T07:22:25;100621.50;;;11.88;96.44
16525;BME280;8375;33.594;-117.718;2023-04-09T07:24:54;100620.69;;;11.87;96.23
16525;BME280;8375;33.594;-117.718;2023-04-09T07:27:23;100613.47;;;11.80;95.99
16525;BME280;8375;33.594;-117.718;2023-04-09T07:29:54;100616.41;;;11.75;96.55
16525;BME280;8375;33.594;-117.718;2023-04-09T07:32:23;100617.84;;;11.79;96.85
16525;BME280;8375;33.594;-117.718;2023-04-09T07:34:52;100615.81;;;11.71;96.71
16525;BME280;8375;33.594;-117.718;2023-04-09T07:37:21;100612.38;;;11.71;96.96
16525;BME280;8375;33.594;-117.718;2023-04-09T07:39:51;100616.72;;;11.59;96.58
16525;BME280;8375;33.594;-117.718;2023-04-09T07:42:20;100615.97;;;11.45;97.10
16525;BME280;8375;33.594;-117.718;2023-04-09T07:44:49;100628.13;;;11.34;97.59
16525;BME280;8375;33.594;-117.718;2023-04-09T07:47:17;100628.44;;;11.29;99.12
16525;BME280;8375;33.594;-117.718;2023-04-09T07:49:46;100629.56;;;11.13;100.00
16525;BME280;8375;33.594;-117.718;2023-04-09T07:52:15;100633.09;;;11.12;100.00
16525;BME280;8375;33.594;-117.718;2023-04-09T07:54:43;100632.59;;;11.07;100.00
16525;BME280;8375;33.594;-117.718;2023-04-09T07:57:14;100629.50;;;11.02;100.00
16525;BME280;8375;33.594;-117.718;2023-04-09T07:59:42;100627.81;;;11.14;100.00
16525;BME280;8375;33.594;-117.718;2023-04-09T08:02:12;100634.22;;;11.21;100.00
16525;BME280;8375;33.594;-117.718;2023-04-09T08:04:41;100626.19;;;11.24;100.00
16525;BME280;8375;33.594;-117.718;2023-04-09T08:07:09;100626.91;;;11.26;100.00
16525;BME280;8375;33.594;-117.718;2023-04-09T08:09:38;100637.81;;;11.32;100.00
16525;BME280;8375;33.594;-117.718;2023-04-09T08:12:07;100631.81;;;11.42;100.00
16525;BME280;8375;33.594;-117.718;2023-04-09T08:14:38;100633.84;;;11.50;100.00
16525;BME280;8375;33.594;-117.718;2023-04-09T08:17:06;100636.94;;;11.55;100.00
16525;BME280;8375;33.594;-117.718;2023-04-09T08:19:35;100634.44;;;11.54;100.00
16525;BME280;8375;33.594;-117.718;2023-04-09T08:22:04;100628.19;;;11.56;100.00
16525;BME280;8375;33.594;-117.718;2023-04-09T08:24:33;100630.78;;;11.56;100.00
16525;BME280;8375;33.594;-117.718;2023-04-09T08:27:02;100630.91;;;11.55;100.00
16525;BME280;8375;33.594;-117.718;2023-04-09T08:29:31;100630.09;;;11.54;100.00
16525;BME280;8375;33.594;-117.718;2023-04-09T08:32:01;100629.00;;;11.57;100.00
16525;BME280;8375;33.594;-117.718;2023-04-09T08:34:30;100624.03;;;11.54;100.00
16525;BME280;8375;33.594;-117.718;2023-04-09T08:36:58;100623.09;;;11.55;100.00
16525;BME280;8375;33.594;-117.718;2023-04-09T08:39:27;100623.00;;;11.56;100.00
16525;BME280;8375;33.594;-117.718;2023-04-09T08:41:57;100628.66;;;11.50;100.00
16525;BME280;8375;33.594;-117.718;2023-04-09T08:44:27;100622.16;;;11.56;100.00
16525;BME280;8375;33.594;-117.718;2023-04-09T08:46:56;100625.00;;;11.64;100.00
16525;BME280;8375;33.594;-117.718;2023-04-09T08:49:26;100613.41;;;11.57;100.00
16525;BME280;8375;33.594;-117.718;2023-04-09T08:51:55;100616.59;;;11.49;100.00
16525;BME280;8375;33.594;-117.718;2023-04-09T08:54:24;100616.84;;;11.57;100.00
16525;BME280;8375;33.594;-117.718;2023-04-09T08:56:52;100611.16;;;11.52;100.00
16525;BME280;8375;33.594;-117.718;2023-04-09T08:59:21;100613.63;;;11.54;100.00
16525;BME280;8375;33.594;-117.718;2023-04-09T09:02:06;100603.72;;;11.59;100.00
16525;BME280;8375;33.594;-117.718;2023-04-09T09:04:46;100602.78;;;11.60;100.00
16525;BME280;8375;33.594;-117.718;2023-04-09T09:07:15;100600.06;;;11.62;100.00
16525;BME280;8375;33.594;-117.718;2023-04-09T09:09:51;100597.03;;;11.68;100.00
16525;BME280;8375;33.594;-117.718;2023-04-09T09:12:36;100593.00;;;11.64;100.00
16525;BME280;8375;33.594;-117.718;2023-04-09T09:15:24;100590.59;;;11.49;100.00
16525;BME280;8375;33.594;-117.718;2023-04-09T09:17:54;100593.44;;;11.46;100.00
16525;BME280;8375;33.594;-117.718;2023-04-09T09:20:26;100585.13;;;11.41;100.00
16525;BME280;8375;33.594;-117.718;2023-04-09T09:22:55;100589.03;;;11.47;100.00
16525;BME280;8375;33.594;-117.718;2023-04-09T09:25:24;100586.09;;;11.51;100.00
16525;BME280;8375;33.594;-117.718;2023-04-09T09:27:53;100579.97;;;11.52;100.00
16525;BME280;8375;33.594;-117.718;2023-04-09T09:30:22;100579.38;;;11.60;100.00
16525;BME280;8375;33.594;-117.718;2023-04-09T09:32:52;100579.63;;;11.68;100.00
16525;BME280;8375;33.594;-117.718;2023-04-09T09:35:21;100579.28;;;11.73;100.00
16525;BME280;8375;33.594;-117.718;2023-04-09T09:38:02;100580.25;;;11.72;100.00
16525;BME280;8375;33.594;-117.718;2023-04-09T09:40:31;100573.72;;;11.66;100.00
16525;BME280;8375;33.594;-117.718;2023-04-09T09:43:00;100576.69;;;11.62;100.00
16525;BME280;8375;33.594;-117.718;2023-04-09T09:45:28;100578.91;;;11.55;100.00
16525;BME280;8375;33.594;-117.718;2023-04-09T09:47:57;100576.53;;;11.63;100.00
16525;BME280;8375;33.594;-117.718;2023-04-09T09:50:30;100575.03;;;11.61;100.00
16525;BME280;8375;33.594;-117.718;2023-04-09T09:53:03;100572.03;;;11.54;100.00
16525;BME280;8375;33.594;-117.718;2023-04-09T09:55:36;100573.59;;;11.56;100.00
16525;BME280;8375;33.594;-117.718;2023-04-09T09:58:10;100574.53;;;11.55;100.00
16525;BME280;8375;33.594;-117.718;2023-04-09T10:00:40;100567.44;;;11.57;100.00
16525;BME280;8375;33.594;-117.718;2023-04-09T10:03:13;100569.91;;;11.59;100.00
16525;BME280;8375;33.594;-117.718;2023-04-09T10:05:43;100569.34;;;11.67;100.00
16525;BME280;8375;33.594;-117.718;2023-04-09T10:08:13;100564.38;;;11.64;100.00
16525;BME280;8375;33.594;-117.718;2023-04-09T10:10:42;100565.81;;;11.68;100.00
16525;BME280;8375;33.594;-117.718;2023-04-09T10:13:15;100565.81;;;11.68;100.00
16525;BME280;8375;33.594;-117.718;2023-04-09T10:15:47;100566.16;;;11.63;100.00
16525;BME280;8375;33.594;-117.718;2023-04-09T10:18:17;100561.78;;;11.64;100.00
16525;BME280;8375;33.594;-117.718;2023-04-09T10:20:51;100558.56;;;11.60;100.00
16525;BME280;8375;33.594;-117.718;2023-04-09T10:23:33;100563.19;;;11.56;100.00
16525;BME280;8375;33.594;-117.718;2023-04-09T10:26:04;100564.00;;;11.57;100.00
16525;BME280;8375;33.594;-117.718;2023-04-09T10:28:33;100564.94;;;11.56;100.00
16525;BME280;8375;33.594;-117.718;2023-04-09T10:31:04;100565.19;;;11.64;100.00
16525;BME280;8375;33.594;-117.718;2023-04-09T10:33:35;100561.88;;;11.62;100.00
16525;BME280;8375;33.594;-117.718;2023-04-09T10:36:06;100560.47;;;11.58;100.00
16525;BME280;8375;33.594;-117.718;2023-04-09T10:38:39;100565.78;;;11.56;100.00
16525;BME280;8375;33.594;-117.718;2023-04-09T10:41:15;100561.31;;;11.58;100.00
16525;BME280;8375;33.594;-117.718;2023-04-09T10:43:49;100555.16;;;11.59;100.00
16525;BME280;8375;33.594;-117.718;2023-04-09T10:46:28;100562.47;;;11.54;100.00
16525;BME280;8375;33.594;-117.718;2023-04-09T10:49:10;100559.41;;;11.49;100.00
16525;BME280;8375;33.594;-117.718;2023-04-09T10:51:40;100560.44;;;11.47;100.00
16525;BME280;8375;33.594;-117.718;2023-04-09T10:54:39;100559.63;;;11.46;100.00
16525;BME280;8375;33.594;-117.718;2023-04-09T10:57:20;100552.16;;;11.41;100.00
16525;BME280;8375;33.594;-117.718;2023-04-09T10:59:51;100556.34;;;11.55;100.00
16525;BME280;8375;33.594;-117.718;2023-04-09T11:05:32;100558.50;;;11.73;100.00
16525;BME280;8375;33.594;-117.718;2023-04-09T11:08:05;100554.56;;;11.67;100.00
16525;BME280;8375;33.594;-117.718;2023-04-09T11:10:37;100560.94;;;11.63;100.00
16525;BME280;8375;33.594;-117.718;2023-04-09T11:13:09;100555.97;;;11.60;100.00
16525;BME280;8375;33.594;-117.718;2023-04-09T11:15:38;100563.44;;;11.53;100.00
16525;BME280;8375;33.594;-117.718;2023-04-09T11:18:07;100559.97;;;11.53;100.00
16525;BME280;8375;33.594;-117.718;2023-04-09T11:20:38;100558.22;;;11.53;100.00
16525;BME280;8375;33.594;-117.718;2023-04-09T11:23:07;100552.78;;;11.56;100.00
16525;BME280;8375;33.594;-117.718;2023-04-09T11:25:37;100549.47;;;11.54;100.00
16525;BME280;8375;33.594;-117.718;2023-04-09T11:28:06;100548.28;;;11.47;100.00
16525;BME280;8375;33.594;-117.718;2023-04-09T11:30:35;100543.56;;;11.41;100.00
16525;BME280;8375;33.594;-117.718;2023-04-09T11:33:05;100558.19;;;11.42;100.00
16525;BME280;8375;33.594;-117.718;2023-04-09T11:35:34;100559.00;;;11.42;100.00
16525;BME280;8375;33.594;-117.718;2023-04-09T11:38:06;100562.09;;;11.48;100.00
16525;BME280;8375;33.594;-117.718;2023-04-09T11:40:38;100556.53;;;11.41;100.00
16525;BME280;8375;33.594;-117.718;2023-04-09T11:43:13;100555.59;;;11.42;100.00
16525;BME280;8375;33.594;-117.718;2023-04-09T11:45:43;100552.75;;;11.34;100.00
16525;BME280;8375;33.594;-117.718;2023-04-09T11:48:13;100559.56;;;11.23;100.00
16525;BME280;8375;33.594;-117.718;2023-04-09T11:50:43;100557.66;;;11.14;100.00
16525;BME280;8375;33.594;-117.718;2023-04-09T11:53:16;100555.78;;;11.16;100.00
16525;BME280;8375;33.594;-117.718;2023-04-09T11:55:49;100561.69;;;11.18;100.00
16525;BME280;8375;33.594;-117.718;2023-04-09T11:58:21;100558.91;;;11.08;100.00
16525;BME280;8375;33.594;-117.718;2023-04-09T12:00:53;100563.56;;;11.16;100.00
16525;BME280;8375;33.594;-117.718;2023-04-09T12:03:29;100553.44;;;11.24;100.00
16525;BME280;8375;33.594;-117.718;2023-04-09T12:06:00;100556.88;;;11.36;100.00
16525;BME280;8375;33.594;-117.718;2023-04-09T12:08:29;100553.34;;;11.37;100.00
16525;BME280;8375;33.594;-117.718;2023-04-09T12:11:09;100555.69;;;11.29;100.00
16525;BME280;8375;33.594;-117.718;2023-04-09T12:13:38;100560.50;;;11.22;100.00
16525;BME280;8375;33.594;-117.718;2023-04-09T12:16:08;100563.16;;;11.34;100.00
16525;BME280;8375;33.594;-117.718;2023-04-09T12:18:37;100563.19;;;11.45;100.00
16525;BME280;8375;33.594;-117.718;2023-04-09T12:21:06;100566.72;;;11.44;100.00
16525;BME280;8375;33.594;-117.718;2023-04-09T12:23:35;100567.66;;;11.43;100.00
16525;BME280;8375;33.594;-117.718;2023-04-09T12:26:03;100561.75;;;11.41;100.00
16525;BME280;8375;33.594;-117.718;2023-04-09T12:28:34;100564.09;;;11.33;100.00
16525;BME280;8375;33.594;-117.718;2023-04-09T12:31:02;100569.78;;;11.38;100.00
16525;BME280;8375;33.594;-117.718;2023-04-09T12:33:31;100567.88;;;11.40;100.00
16525;BME280;8375;33.594;-117.718;2023-04-09T12:36:00;100564.34;;;11.41;100.00
16525;BME280;8375;33.594;-117.718;2023-04-09T12:38:29;100568.00;;;11.38;100.00
16525;BME280;8375;33.594;-117.718;2023-04-09T12:40:57;100567.44;;;11.46;100.00
16525;BME280;8375;33.594;-117.718;2023-04-09T12:43:26;100571.44;;;11.50;100.00
16525;BME280;8375;33.594;-117.718;2023-04-09T12:45:56;100566.25;;;11.50;100.00